Time;durP1;ratioP1;P1;durP2;ratioP2;P2;SDS_P1;SDS_P2;PMS_P1;PMS_P2;Temp;Humidity;BMP_temperature;BMP_pressure;BME280_temperature;BME280_humidity;BME280_pressure;Samples;Min_cycle;Max_cycle;Signal;HPM_P1;HPM_P2
2021/07/21 00:01:21;;;;;;;;;21.75;20.00;;;;;;;;5068668;27;52193;-57
2021/07/21 00:03:46;;;;;;;;;19.50;19.50;;;;;;;;5072225;27;50951;-57
2021/07/21 00:06:11;;;;;;;;;17.25;16.00;;;;;;;;5065884;27;51389;-57
2021/07/21 00:08:36;;;;;;;;;18.00;17.25;;;;;;;;5072381;28;50977;-58
2021/07/21 00:13:46;;;;;;;;;17.25;17.00;;;;;;;;5071906;28;50906;-57
2021/07/21 00:16:17;;;;;;;;;18.00;18.00;;;;;;;;5071459;27;50970;-57
2021/07/21 00:21:08;;;;;;;;;21.00;18.75;;;;;;;;5065178;27;51076;-57
2021/07/21 00:23:35;;;;;;;;;17.75;16.75;;;;;;;;5075606;28;51067;-57
2021/07/21 00:26:01;;;;;;;;;18.25;17.00;;;;;;;;5073238;27;51149;-57
2021/07/21 00:28:26;;;;;;;;;20.00;19.00;;;;;;;;5075974;27;50938;-58
2021/07/21 00:30:51;;;;;;;;;20.50;20.00;;;;;;;;5075034;28;51891;-58
2021/07/21 00:33:16;;;;;;;;;19.50;18.75;;;;;;;;5075813;27;51136;-58
2021/07/21 00:35:44;;;;;;;;;22.50;20.00;;;;;;;;5072844;27;51288;-58
2021/07/21 00:38:10;;;;;;;;;21.00;19.50;;;;;;;;5068868;28;51307;-58
2021/07/21 00:40:35;;;;;;;;;21.25;18.75;;;;;;;;5075054;28;51724;-58
2021/07/21 00:43:01;;;;;;;;;24.75;24.00;;;;;;;;5075640;28;50977;-58
2021/07/21 00:45:26;;;;;;;;;23.75;21.00;;;;;;;;5072482;27;50890;-58
2021/07/21 00:47:52;;;;;;;;;23.00;18.50;;;;;;;;5068175;28;50935;-58
2021/07/21 00:50:17;;;;;;;;;22.00;19.50;;;;;;;;5060767;27;52143;-58
2021/07/21 00:52:42;;;;;;;;;25.00;22.33;;;;;;;;5075413;27;51045;-58
2021/07/21 00:55:09;;;;;;;;;20.75;19.75;;;;;;;;5075643;27;51172;-58
2021/07/21 00:57:34;;;;;;;;;18.75;18.00;;;;;;;;5072444;28;51068;-58
2021/07/21 01:00:00;;;;;;;;;23.75;22.50;;;;;;;;5074674;27;51828;-59
2021/07/21 01:02:25;;;;;;;;;22.75;21.75;;;;;;;;5073413;28;51278;-58
2021/07/21 01:04:51;;;;;;;;;19.75;19.25;;;;;;;;5075001;27;51069;-58
2021/07/21 01:07:17;;;;;;;;;21.75;20.75;;;;;;;;5075666;27;51188;-58
2021/07/21 01:09:43;;;;;;;;;22.25;22.00;;;;;;;;5074975;28;50977;-59
2021/07/21 01:12:16;;;;;;;;;21.33;19.00;;;;;;;;5073996;27;51076;-58
2021/07/21 01:14:48;;;;;;;;;21.75;20.75;;;;;;;;5074791;27;51215;-58
2021/07/21 01:17:15;;;;;;;;;22.50;21.00;;;;;;;;5075183;27;50990;-58
2021/07/21 01:19:50;;;;;;;;;20.75;19.25;;;;;;;;5073497;28;53211;-57
2021/07/21 01:22:17;;;;;;;;;21.50;20.00;;;;;;;;5072120;27;51136;-57
2021/07/21 01:24:52;;;;;;;;;26.33;21.33;;;;;;;;5074863;27;50866;-58
2021/07/21 01:27:17;;;;;;;;;20.00;19.00;;;;;;;;5074624;27;51203;-57
2021/07/21 01:29:45;;;;;;;;;21.00;19.00;;;;;;;;5073422;27;53054;-57
2021/07/21 01:32:12;;;;;;;;;22.50;22.25;;;;;;;;5062183;27;51066;-58
2021/07/21 01:34:39;;;;;;;;;25.00;20.75;;;;;;;;5073475;28;51045;-57
2021/07/21 01:37:04;;;;;;;;;22.00;21.00;;;;;;;;5074561;27;51014;-59
2021/07/21 01:39:31;;;;;;;;;22.25;22.25;;;;;;;;5074168;27;51124;-57
2021/07/21 01:42:04;;;;;;;;;27.50;24.75;;;;;;;;5060214;27;51136;-59
2021/07/21 01:44:30;;;;;;;;;18.50;18.25;;;;;;;;5073970;28;50971;-58
2021/07/21 01:46:58;;;;;;;;;19.00;17.50;;;;;;;;5074493;28;51103;-57
2021/07/21 01:49:26;;;;;;;;;27.00;22.75;;;;;;;;5074056;27;52023;-58
2021/07/21 01:51:51;;;;;;;;;22.00;21.25;;;;;;;;5061295;27;51096;-58
2021/07/21 01:54:18;;;;;;;;;25.25;22.75;;;;;;;;5068993;28;51128;-58
2021/07/21 01:56:44;;;;;;;;;23.67;23.67;;;;;;;;5072854;28;51307;-57
2021/07/21 01:59:11;;;;;;;;;22.25;22.00;;;;;;;;5073380;27;51962;-58
2021/07/21 02:01:37;;;;;;;;;23.25;21.75;;;;;;;;5071369;28;51080;-57
2021/07/21 02:04:03;;;;;;;;;31.00;23.25;;;;;;;;5059753;27;51274;-57
2021/07/21 02:06:30;;;;;;;;;24.00;22.00;;;;;;;;5074390;27;51138;-58
2021/07/21 02:08:57;;;;;;;;;25.25;23.75;;;;;;;;5072238;27;52270;-57
2021/07/21 02:11:22;;;;;;;;;26.00;23.75;;;;;;;;5074437;27;50945;-57
2021/07/21 02:13:48;;;;;;;;;22.25;22.00;;;;;;;;5073782;27;51838;-57
2021/07/21 02:16:14;;;;;;;;;24.75;23.50;;;;;;;;5074523;27;51012;-56
2021/07/21 02:18:40;;;;;;;;;25.50;23.25;;;;;;;;5070003;27;51099;-58
2021/07/21 02:21:06;;;;;;;;;26.75;25.00;;;;;;;;5057306;27;51153;-58
2021/07/21 02:23:33;;;;;;;;;27.50;26.75;;;;;;;;5069674;28;51083;-58
2021/07/21 02:25:59;;;;;;;;;24.00;22.25;;;;;;;;5074235;27;51365;-58
2021/07/21 02:28:24;;;;;;;;;22.50;21.50;;;;;;;;5071853;27;51552;-58
2021/07/21 02:30:51;;;;;;;;;20.75;20.75;;;;;;;;5061056;28;50902;-58
2021/07/21 02:33:19;;;;;;;;;25.00;24.00;;;;;;;;5074051;27;51136;-58
2021/07/21 02:35:44;;;;;;;;;25.25;24.25;;;;;;;;5068120;27;51381;-58
2021/07/21 02:38:11;;;;;;;;;25.75;25.25;;;;;;;;5069506;28;53167;-58
2021/07/21 02:40:36;;;;;;;;;24.50;22.50;;;;;;;;5064197;27;51301;-58
2021/07/21 02:43:02;;;;;;;;;23.50;23.50;;;;;;;;5073573;28;51020;-58
2021/07/21 02:45:27;;;;;;;;;24.75;23.00;;;;;;;;5072477;28;51271;-58
2021/07/21 02:47:53;;;;;;;;;23.75;23.25;;;;;;;;5073525;27;51424;-58
2021/07/21 02:50:18;;;;;;;;;22.50;22.00;;;;;;;;5060240;27;51186;-57
2021/07/21 02:52:44;;;;;;;;;27.25;23.75;;;;;;;;5063062;27;51120;-58
2021/07/21 02:55:17;;;;;;;;;19.50;18.50;;;;;;;;5068270;28;50994;-58
2021/07/21 02:57:50;;;;;;;;;25.50;25.25;;;;;;;;5073455;28;51062;-58
2021/07/21 03:00:17;;;;;;;;;26.50;26.25;;;;;;;;5071395;27;51110;-58
2021/07/21 03:02:43;;;;;;;;;27.50;25.00;;;;;;;;5067747;28;50939;-58
2021/07/21 03:05:11;;;;;;;;;24.25;23.00;;;;;;;;5072057;28;50843;-57
2021/07/21 03:07:37;;;;;;;;;27.50;25.00;;;;;;;;5071673;27;51030;-57
2021/07/21 03:10:03;;;;;;;;;24.00;21.25;;;;;;;;5073214;27;50942;-57
2021/07/21 03:12:29;;;;;;;;;26.50;25.00;;;;;;;;5073355;27;50958;-58
2021/07/21 03:14:54;;;;;;;;;24.25;24.00;;;;;;;;5071567;28;50971;-58
2021/07/21 03:17:21;;;;;;;;;26.00;23.00;;;;;;;;5073378;28;52283;-58
2021/07/21 03:19:51;;;;;;;;;23.50;22.25;;;;;;;;5072950;27;51041;-59
2021/07/21 03:22:19;;;;;;;;;25.00;24.00;;;;;;;;5073252;27;50870;-58
2021/07/21 03:24:45;;;;;;;;;22.50;22.50;;;;;;;;5071862;27;50993;-58
2021/07/21 03:27:10;;;;;;;;;22.25;22.25;;;;;;;;5072845;27;52111;-58
2021/07/21 03:29:36;;;;;;;;;25.00;23.50;;;;;;;;5072721;27;50923;-58
2021/07/21 03:32:01;;;;;;;;;22.25;21.75;;;;;;;;5073311;28;50993;-59
2021/07/21 03:34:27;;;;;;;;;22.75;22.50;;;;;;;;5071654;28;51363;-59
2021/07/21 03:36:54;;;;;;;;;23.00;22.00;;;;;;;;5072707;28;51091;-59
2021/07/21 03:39:20;;;;;;;;;29.50;27.00;;;;;;;;5071415;28;51122;-58
2021/07/21 03:41:47;;;;;;;;;25.25;22.75;;;;;;;;5073003;27;50908;-58
2021/07/21 03:44:13;;;;;;;;;26.00;25.25;;;;;;;;5068549;27;51418;-58
2021/07/21 03:46:39;;;;;;;;;26.00;22.75;;;;;;;;5072479;27;52084;-58
2021/07/21 03:49:05;;;;;;;;;22.50;22.25;;;;;;;;5072685;27;51063;-59
2021/07/21 03:51:31;;;;;;;;;24.00;22.50;;;;;;;;5072375;27;51116;-58
2021/07/21 03:53:57;;;;;;;;;25.50;22.75;;;;;;;;5057733;27;51261;-58
2021/07/21 03:56:24;;;;;;;;;19.50;18.50;;;;;;;;5072291;27;51099;-59
2021/07/21 03:58:49;;;;;;;;;26.00;24.25;;;;;;;;5072208;27;50910;-59
2021/07/21 04:01:15;;;;;;;;;24.25;22.50;;;;;;;;5072334;28;51178;-59
2021/07/21 04:03:40;;;;;;;;;22.00;21.50;;;;;;;;5057625;27;51259;-58
2021/07/21 04:06:06;;;;;;;;;23.00;21.75;;;;;;;;5072194;27;51897;-59
2021/07/21 04:08:33;;;;;;;;;28.75;25.25;;;;;;;;5069649;27;50902;-58
2021/07/21 04:10:58;;;;;;;;;27.75;26.00;;;;;;;;5059612;27;51094;-58
2021/07/21 04:13:25;;;;;;;;;28.50;27.25;;;;;;;;5072353;27;51072;-59
2021/07/21 04:15:50;;;;;;;;;23.50;22.25;;;;;;;;5071959;27;52136;-58
2021/07/21 04:18:19;;;;;;;;;23.25;22.75;;;;;;;;5072078;28;51054;-59
2021/07/21 04:20:45;;;;;;;;;25.75;24.25;;;;;;;;5063341;27;51000;-58
2021/07/21 04:23:11;;;;;;;;;24.25;22.25;;;;;;;;5068907;27;51107;-58
2021/07/21 04:25:36;;;;;;;;;24.50;24.50;;;;;;;;5072088;27;52716;-59
2021/07/21 04:28:02;;;;;;;;;21.50;21.50;;;;;;;;5070871;28;50915;-59
2021/07/21 04:30:29;;;;;;;;;24.75;23.75;;;;;;;;5070315;27;51044;-59
2021/07/21 04:32:54;;;;;;;;;23.00;21.00;;;;;;;;5072305;27;51150;-58
2021/07/21 04:35:20;;;;;;;;;25.50;25.00;;;;;;;;5071848;28;52229;-58
2021/07/21 04:37:45;;;;;;;;;21.50;21.25;;;;;;;;5072094;27;50997;-59
2021/07/21 04:40:12;;;;;;;;;29.00;25.25;;;;;;;;5067020;27;50992;-58
2021/07/21 04:42:37;;;;;;;;;25.50;23.50;;;;;;;;5072006;28;50973;-58
2021/07/21 04:45:03;;;;;;;;;25.00;24.25;;;;;;;;5071376;27;51978;-58
2021/07/21 04:47:28;;;;;;;;;27.25;25.50;;;;;;;;5071788;27;50928;-59
2021/07/21 04:49:54;;;;;;;;;24.75;24.00;;;;;;;;5067873;27;51132;-58
2021/07/21 04:52:20;;;;;;;;;24.75;22.25;;;;;;;;5071373;28;51115;-58
2021/07/21 04:54:46;;;;;;;;;26.00;25.25;;;;;;;;5064641;27;51750;-58
2021/07/21 04:57:11;;;;;;;;;25.75;24.75;;;;;;;;5070130;27;50938;-58
2021/07/21 04:59:37;;;;;;;;;26.50;26.00;;;;;;;;5065714;28;50819;-59
2021/07/21 05:02:02;;;;;;;;;22.25;22.00;;;;;;;;5060164;27;50871;-59
2021/07/21 05:04:28;;;;;;;;;24.50;23.00;;;;;;;;5064560;27;52295;-59
2021/07/21 05:06:53;;;;;;;;;26.00;25.75;;;;;;;;5075108;27;51304;-59
2021/07/21 05:09:18;;;;;;;;;30.75;28.50;;;;;;;;5074867;27;51032;-59
2021/07/21 05:11:43;;;;;;;;;27.00;25.50;;;;;;;;5073888;27;50918;-58
2021/07/21 05:14:08;;;;;;;;;26.75;26.25;;;;;;;;5068956;28;51201;-59
2021/07/21 05:16:35;;;;;;;;;24.00;23.50;;;;;;;;5071714;28;51013;-58
2021/07/21 05:19:00;;;;;;;;;30.00;27.50;;;;;;;;5058013;28;51157;-59
2021/07/21 05:21:27;;;;;;;;;28.00;26.75;;;;;;;;5074391;27;51194;-58
2021/07/21 05:23:52;;;;;;;;;20.25;19.75;;;;;;;;5074598;27;52234;-58
2021/07/21 05:26:17;;;;;;;;;21.75;21.25;;;;;;;;5066473;27;51068;-59
2021/07/21 05:28:42;;;;;;;;;26.25;26.00;;;;;;;;5074371;28;51204;-58
2021/07/21 05:31:08;;;;;;;;;24.50;24.50;;;;;;;;5068937;27;51228;-58
2021/07/21 05:33:33;;;;;;;;;27.00;27.00;;;;;;;;5085420;27;51847;-58
2021/07/21 05:35:59;;;;;;;;;27.00;25.75;;;;;;;;5073471;27;50988;-58
2021/07/21 05:38:24;;;;;;;;;23.50;23.25;;;;;;;;5074747;27;50875;-59
2021/07/21 05:40:49;;;;;;;;;27.00;26.25;;;;;;;;5074646;27;50962;-58
2021/07/21 05:43:14;;;;;;;;;25.75;25.25;;;;;;;;5073849;27;51895;-58
2021/07/21 05:45:40;;;;;;;;;28.25;27.00;;;;;;;;5073682;27;51036;-60
2021/07/21 05:48:05;;;;;;;;;28.50;25.25;;;;;;;;5073777;27;50863;-58
2021/07/21 05:50:30;;;;;;;;;24.00;24.00;;;;;;;;5072932;28;51427;-58
2021/07/21 05:52:56;;;;;;;;;26.50;24.25;;;;;;;;5073283;27;52147;-58
2021/07/21 05:55:21;;;;;;;;;29.75;27.00;;;;;;;;5060424;27;50874;-59
2021/07/21 05:57:47;;;;;;;;;28.00;27.75;;;;;;;;5072244;28;50930;-59
2021/07/21 06:00:13;;;;;;;;;26.75;24.75;;;;;;;;5072901;28;50931;-58
2021/07/21 06:02:38;;;;;;;;;30.50;29.00;;;;;;;;5072519;28;51718;-58
2021/07/21 06:05:04;;;;;;;;;31.50;29.00;;;;;;;;5073468;27;51199;-58
2021/07/21 06:07:29;;;;;;;;;26.50;26.50;;;;;;;;5074119;27;51120;-58
2021/07/21 06:09:54;;;;;;;;;29.25;28.75;;;;;;;;5074033;27;51267;-58
2021/07/21 06:12:20;;;;;;;;;27.25;26.25;;;;;;;;5064540;27;51059;-58
2021/07/21 06:14:45;;;;;;;;;26.00;24.25;;;;;;;;5072825;27;51234;-58
2021/07/21 06:17:10;;;;;;;;;27.50;26.50;;;;;;;;5073447;27;51124;-58
2021/07/21 06:19:35;;;;;;;;;30.00;28.75;;;;;;;;5074326;27;51136;-59
2021/07/21 06:22:01;;;;;;;;;29.50;27.75;;;;;;;;5068909;27;51858;-58
2021/07/21 06:24:27;;;;;;;;;30.00;27.75;;;;;;;;5062530;27;51152;-58
2021/07/21 06:26:52;;;;;;;;;28.25;26.00;;;;;;;;5073312;27;51068;-58
2021/07/21 06:29:18;;;;;;;;;30.00;28.75;;;;;;;;5073718;28;51250;-58
2021/07/21 06:31:43;;;;;;;;;33.00;29.25;;;;;;;;5073187;27;52076;-58
2021/07/21 06:34:08;;;;;;;;;29.00;28.50;;;;;;;;5073555;27;51114;-58
2021/07/21 06:36:33;;;;;;;;;23.75;23.50;;;;;;;;5071854;28;51262;-58
2021/07/21 06:38:58;;;;;;;;;29.25;28.75;;;;;;;;5073403;27;51295;-58
2021/07/21 06:41:24;;;;;;;;;28.50;26.00;;;;;;;;5072819;27;52399;-58
2021/07/21 06:43:52;;;;;;;;;32.25;29.25;;;;;;;;5072898;27;50891;-58
2021/07/21 06:46:18;;;;;;;;;29.50;28.25;;;;;;;;5072554;27;50855;-58
2021/07/21 06:48:43;;;;;;;;;31.25;30.00;;;;;;;;5073039;27;51095;-59
2021/07/21 06:51:08;;;;;;;;;25.50;24.75;;;;;;;;5072568;27;52007;-57
2021/07/21 06:53:33;;;;;;;;;28.25;26.50;;;;;;;;5072968;28;51049;-58
2021/07/21 06:55:59;;;;;;;;;29.75;28.75;;;;;;;;5070053;27;51241;-59
2021/07/21 06:58:24;;;;;;;;;30.50;29.25;;;;;;;;5071490;28;50990;-57
2021/07/21 07:00:49;;;;;;;;;28.25;27.50;;;;;;;;5072363;27;51186;-57
2021/07/21 07:03:14;;;;;;;;;28.00;26.50;;;;;;;;5071524;28;51115;-58
2021/07/21 07:05:40;;;;;;;;;24.75;24.75;;;;;;;;5072814;27;51156;-58
2021/07/21 07:08:05;;;;;;;;;28.25;25.50;;;;;;;;5073063;28;50956;-58
2021/07/21 07:10:30;;;;;;;;;27.75;26.50;;;;;;;;5072692;28;51798;-57
2021/07/21 07:12:57;;;;;;;;;27.75;27.00;;;;;;;;5072718;27;50990;-58
2021/07/21 07:15:22;;;;;;;;;28.75;27.25;;;;;;;;5072706;28;50931;-58
2021/07/21 07:17:47;;;;;;;;;22.75;21.50;;;;;;;;5072687;27;51401;-58
2021/07/21 07:20:13;;;;;;;;;26.25;25.75;;;;;;;;5071184;28;54073;-58
2021/07/21 07:22:38;;;;;;;;;30.00;28.00;;;;;;;;5070827;28;51390;-58
2021/07/21 07:25:04;;;;;;;;;23.75;23.75;;;;;;;;5072432;28;51043;-58
2021/07/21 07:27:29;;;;;;;;;25.25;25.25;;;;;;;;5071530;27;50888;-58
2021/07/21 07:29:55;;;;;;;;;26.25;25.25;;;;;;;;5071866;27;51665;-58
2021/07/21 07:32:20;;;;;;;;;31.50;29.50;;;;;;;;5070924;28;51173;-57
2021/07/21 07:34:46;;;;;;;;;27.75;26.50;;;;;;;;5072346;28;51049;-58
2021/07/21 07:37:11;;;;;;;;;24.25;23.25;;;;;;;;5072159;27;50877;-58
2021/07/21 07:39:36;;;;;;;;;27.25;25.75;;;;;;;;5071874;28;52178;-58
2021/07/21 07:42:01;;;;;;;;;28.75;26.75;;;;;;;;5072085;27;50961;-58
2021/07/21 07:44:28;;;;;;;;;24.75;24.50;;;;;;;;5072254;27;50931;-58
2021/07/21 07:46:53;;;;;;;;;27.25;24.75;;;;;;;;5072262;27;50980;-60
2021/07/21 07:49:18;;;;;;;;;19.25;18.25;;;;;;;;5071614;27;51217;-59
2021/07/21 07:51:43;;;;;;;;;23.75;23.25;;;;;;;;5072095;28;51025;-59
2021/07/21 07:54:09;;;;;;;;;28.00;26.75;;;;;;;;5072331;27;51004;-59
2021/07/21 07:56:34;;;;;;;;;23.75;23.75;;;;;;;;5068346;28;51155;-59
2021/07/21 07:59:00;;;;;;;;;28.50;27.00;;;;;;;;5070997;27;51803;-58
2021/07/21 08:01:25;;;;;;;;;27.75;26.50;;;;;;;;5071469;28;50892;-58
2021/07/21 08:03:50;;;;;;;;;25.50;25.50;;;;;;;;5070566;28;51172;-58
2021/07/21 08:06:16;;;;;;;;;26.25;23.75;;;;;;;;5072062;27;51004;-59
2021/07/21 08:08:41;;;;;;;;;23.25;22.50;;;;;;;;5071760;28;51729;-59
2021/07/21 08:11:09;;;;;;;;;22.50;22.25;;;;;;;;5072122;27;51055;-59
2021/07/21 08:13:34;;;;;;;;;24.75;23.25;;;;;;;;5071904;27;50868;-59
2021/07/21 08:15:59;;;;;;;;;25.75;24.75;;;;;;;;5072276;27;51260;-58
2021/07/21 08:18:24;;;;;;;;;22.75;22.25;;;;;;;;5071709;27;51111;-59
2021/07/21 08:20:50;;;;;;;;;28.00;27.00;;;;;;;;5071885;27;50965;-58
2021/07/21 08:23:15;;;;;;;;;24.50;24.25;;;;;;;;5068557;27;51495;-58
2021/07/21 08:25:41;;;;;;;;;23.25;22.25;;;;;;;;5062858;28;50908;-58
2021/07/21 08:28:07;;;;;;;;;19.50;19.50;;;;;;;;5071323;27;52251;-58
2021/07/21 08:30:32;;;;;;;;;26.25;25.25;;;;;;;;5071312;27;50988;-58
2021/07/21 08:32:58;;;;;;;;;23.50;23.25;;;;;;;;5071688;27;50886;-59
2021/07/21 08:35:28;;;;;;;;;19.75;19.25;;;;;;;;5067686;28;51354;-58
2021/07/21 08:37:54;;;;;;;;;20.25;20.00;;;;;;;;5071160;28;52290;-58
2021/07/21 08:40:21;;;;;;;;;22.75;21.50;;;;;;;;5075117;27;50940;-58
2021/07/21 08:42:46;;;;;;;;;21.25;20.50;;;;;;;;5075103;27;51155;-58
2021/07/21 08:45:12;;;;;;;;;22.75;22.75;;;;;;;;5074783;27;50893;-58
2021/07/21 08:47:37;;;;;;;;;24.25;24.25;;;;;;;;5074904;28;52037;-58
2021/07/21 08:50:04;;;;;;;;;23.25;23.25;;;;;;;;5073378;28;51415;-58
2021/07/21 08:52:30;;;;;;;;;25.75;24.25;;;;;;;;5074923;27;50996;-58
2021/07/21 08:54:58;;;;;;;;;21.00;20.75;;;;;;;;5074836;27;51280;-58
2021/07/21 08:57:24;;;;;;;;;23.75;23.50;;;;;;;;5062345;27;51110;-58
2021/07/21 08:59:50;;;;;;;;;21.75;21.75;;;;;;;;5071208;28;51305;-59
2021/07/21 09:02:15;;;;;;;;;20.00;20.00;;;;;;;;5074843;27;51403;-57
2021/07/21 09:04:41;;;;;;;;;22.00;21.50;;;;;;;;5074653;27;51144;-58
2021/07/21 09:07:07;;;;;;;;;21.75;20.50;;;;;;;;5074067;27;52434;-58
2021/07/21 09:09:33;;;;;;;;;19.50;19.25;;;;;;;;5074702;27;50940;-58
2021/07/21 09:11:58;;;;;;;;;21.75;21.25;;;;;;;;5074801;27;51236;-58
2021/07/21 09:14:24;;;;;;;;;22.25;21.50;;;;;;;;5073138;28;51296;-58
2021/07/21 09:17:08;;;;;;;;;21.50;21.00;;;;;;;;5074338;27;52126;-58
2021/07/21 09:19:34;;;;;;;;;20.25;19.75;;;;;;;;5073146;28;50950;-58
2021/07/21 09:22:17;;;;;;;;;17.25;17.25;;;;;;;;5074781;27;51149;-58
2021/07/21 09:24:44;;;;;;;;;17.50;17.50;;;;;;;;5074519;28;51087;-58
2021/07/21 09:27:09;;;;;;;;;20.00;20.00;;;;;;;;5072730;28;52364;-58
2021/07/21 09:29:34;;;;;;;;;17.75;17.25;;;;;;;;5073816;27;51078;-58
2021/07/21 09:32:00;;;;;;;;;18.00;18.00;;;;;;;;5074279;28;50910;-58
2021/07/21 09:34:26;;;;;;;;;18.75;18.75;;;;;;;;5074025;27;51287;-58
2021/07/21 09:37:00;;;;;;;;;19.00;18.25;;;;;;;;5073541;27;51023;-58
2021/07/21 09:39:36;;;;;;;;;21.00;20.25;;;;;;;;5074334;27;50986;-58
2021/07/21 09:42:02;;;;;;;;;18.75;18.75;;;;;;;;5073876;27;50960;-58
2021/07/21 09:44:32;;;;;;;;;19.25;19.00;;;;;;;;5072207;28;51338;-58
2021/07/21 09:47:09;;;;;;;;;18.25;17.75;;;;;;;;5073171;27;51787;-58
2021/07/21 09:49:34;;;;;;;;;21.25;21.25;;;;;;;;5072814;27;51135;-58
2021/07/21 09:52:12;;;;;;;;;26.75;26.25;;;;;;;;5073506;27;51274;-59
2021/07/21 09:54:37;;;;;;;;;23.00;22.25;;;;;;;;5073703;28;51611;-60
2021/07/21 09:57:10;;;;;;;;;19.50;19.00;;;;;;;;5069974;27;51968;-59
2021/07/21 09:59:35;;;;;;;;;21.00;20.50;;;;;;;;5062323;28;51143;-59
2021/07/21 10:02:13;;;;;;;;;22.25;20.50;;;;;;;;5073339;27;51140;-59
2021/07/21 10:04:40;;;;;;;;;22.75;22.25;;;;;;;;5073135;27;50933;-58
2021/07/21 10:09:40;;;;;;;;;19.00;18.50;;;;;;;;5073262;27;51026;-60
2021/07/21 10:12:18;;;;;;;;;17.75;17.25;;;;;;;;5072885;27;50947;-61
2021/07/21 10:15:00;;;;;;;;;17.25;17.00;;;;;;;;5072494;27;51002;-58
2021/07/21 10:17:26;;;;;;;;;18.25;18.00;;;;;;;;5072725;27;51176;-59
2021/07/21 10:19:51;;;;;;;;;18.75;18.50;;;;;;;;5072914;27;51398;-58
2021/07/21 10:22:16;;;;;;;;;15.25;15.00;;;;;;;;5073357;28;51192;-59
2021/07/21 10:24:43;;;;;;;;;18.75;18.00;;;;;;;;5069033;27;51066;-59
2021/07/21 10:27:09;;;;;;;;;17.25;15.75;;;;;;;;5072708;27;51876;-58
2021/07/21 10:29:34;;;;;;;;;19.00;18.50;;;;;;;;5072056;27;50994;-59
2021/07/21 10:31:59;;;;;;;;;17.50;16.75;;;;;;;;5073000;27;51107;-59
2021/07/21 10:34:25;;;;;;;;;18.25;16.50;;;;;;;;5072944;27;50918;-59
2021/07/21 10:36:51;;;;;;;;;16.25;16.25;;;;;;;;5072796;28;51732;-58
2021/07/21 10:39:24;;;;;;;;;18.00;17.75;;;;;;;;5072639;28;50947;-59
2021/07/21 10:41:50;;;;;;;;;17.25;16.75;;;;;;;;5072035;27;50943;-59
2021/07/21 10:44:16;;;;;;;;;17.50;17.50;;;;;;;;5072640;27;51126;-59
2021/07/21 10:46:45;;;;;;;;;18.25;17.75;;;;;;;;5071993;28;52408;-59
2021/07/21 10:49:36;;;;;;;;;18.75;18.00;;;;;;;;5071843;27;50919;-59
2021/07/21 11:00:13;;;;;;;;;16.75;16.75;;;;;;;;5060306;28;50806;-60
2021/07/21 11:02:39;;;;;;;;;16.00;16.00;;;;;;;;5071586;27;51180;-59
2021/07/21 11:05:05;;;;;;;;;19.75;19.00;;;;;;;;5072114;27;51107;-59
2021/07/21 11:08:00;;;;;;;;;16.75;16.25;;;;;;;;5071801;27;52522;-59
2021/07/21 11:10:45;;;;;;;;;18.00;17.25;;;;;;;;5066791;27;51417;-60
2021/07/21 11:13:12;;;;;;;;;19.00;17.50;;;;;;;;5070521;28;51061;-59
2021/07/21 11:15:56;;;;;;;;;13.00;12.25;;;;;;;;5072246;27;51125;-59
2021/07/21 11:18:21;;;;;;;;;20.25;19.25;;;;;;;;5071860;27;52336;-59
2021/07/21 11:20:59;;;;;;;;;16.00;15.25;;;;;;;;5071553;27;51045;-59
2021/07/21 11:23:42;;;;;;;;;18.75;17.75;;;;;;;;5071821;27;51109;-59
2021/07/21 11:26:26;;;;;;;;;16.75;16.75;;;;;;;;5071290;28;51304;-59
2021/07/21 11:28:51;;;;;;;;;17.25;17.25;;;;;;;;5070723;27;51870;-59
2021/07/21 11:31:16;;;;;;;;;14.50;13.75;;;;;;;;5071609;28;51067;-59
2021/07/21 11:33:41;;;;;;;;;18.75;18.25;;;;;;;;5071550;27;51064;-59
2021/07/21 11:36:07;;;;;;;;;18.50;17.50;;;;;;;;5072025;27;51278;-59
2021/07/21 11:38:52;;;;;;;;;19.00;18.50;;;;;;;;5072174;27;51837;-59
2021/07/21 11:41:36;;;;;;;;;17.50;17.50;;;;;;;;5071749;27;51100;-59
2021/07/21 11:44:02;;;;;;;;;18.25;17.75;;;;;;;;5071695;28;51042;-59
2021/07/21 11:46:27;;;;;;;;;18.25;17.25;;;;;;;;5071713;27;51170;-59
2021/07/21 11:48:53;;;;;;;;;15.25;14.00;;;;;;;;5070237;28;51886;-59
2021/07/21 11:51:18;;;;;;;;;16.50;16.50;;;;;;;;5071754;27;51052;-59
2021/07/21 11:53:46;;;;;;;;;17.75;16.75;;;;;;;;5071836;28;51203;-59
2021/07/21 11:56:11;;;;;;;;;20.75;20.25;;;;;;;;5071923;27;50908;-59
2021/07/21 11:58:37;;;;;;;;;18.25;17.75;;;;;;;;5069002;27;52272;-59
2021/07/21 12:01:05;;;;;;;;;20.00;18.75;;;;;;;;5071388;27;50964;-59
2021/07/21 12:03:42;;;;;;;;;21.25;21.25;;;;;;;;5071080;27;51081;-59
2021/07/21 12:06:07;;;;;;;;;19.50;18.75;;;;;;;;5071995;27;51210;-59
2021/07/21 12:08:32;;;;;;;;;20.00;19.00;;;;;;;;5071108;28;52193;-59
2021/07/21 12:10:58;;;;;;;;;17.25;15.75;;;;;;;;5070392;28;50989;-59
2021/07/21 12:13:23;;;;;;;;;18.00;17.50;;;;;;;;5069180;28;51104;-58
2021/07/21 12:16:00;;;;;;;;;18.25;17.25;;;;;;;;5072000;27;51358;-59
2021/07/21 12:18:26;;;;;;;;;18.25;17.50;;;;;;;;5071011;27;52040;-60
2021/07/21 12:20:51;;;;;;;;;17.75;17.75;;;;;;;;5071196;28;50859;-60
2021/07/21 12:23:19;;;;;;;;;15.75;15.00;;;;;;;;5071278;27;51087;-59
2021/07/21 12:25:45;;;;;;;;;15.50;15.50;;;;;;;;5063021;27;51353;-58
2021/07/21 12:28:10;;;;;;;;;16.50;16.50;;;;;;;;5067919;28;51788;-59
2021/07/21 12:30:38;;;;;;;;;20.00;19.00;;;;;;;;5069099;28;51000;-59
2021/07/21 12:33:04;;;;;;;;;14.50;14.50;;;;;;;;5070892;27;50903;-59
2021/07/21 12:35:30;;;;;;;;;15.00;15.00;;;;;;;;5067506;27;50929;-59
2021/07/21 12:37:56;;;;;;;;;21.25;19.50;;;;;;;;5069242;28;52180;-59
2021/07/21 12:40:23;;;;;;;;;19.75;18.00;;;;;;;;5071112;27;51134;-59
2021/07/21 12:42:50;;;;;;;;;17.50;17.50;;;;;;;;5070450;27;51077;-60
2021/07/21 12:45:16;;;;;;;;;13.75;13.75;;;;;;;;5071040;27;50923;-59
2021/07/21 12:47:46;;;;;;;;;19.50;18.50;;;;;;;;5070573;27;52378;-58
2021/07/21 12:50:11;;;;;;;;;15.00;14.00;;;;;;;;5070762;28;51350;-59
2021/07/21 12:52:40;;;;;;;;;18.25;17.25;;;;;;;;5070989;27;50953;-59
2021/07/21 12:55:06;;;;;;;;;18.50;17.50;;;;;;;;5070852;27;51107;-58
2021/07/21 12:57:32;;;;;;;;;18.75;18.25;;;;;;;;5070578;27;52403;-59
2021/07/21 13:00:03;;;;;;;;;18.00;18.00;;;;;;;;5061619;27;51000;-60
2021/07/21 13:02:28;;;;;;;;;19.25;17.50;;;;;;;;5064416;28;51042;-60
2021/07/21 13:04:54;;;;;;;;;17.50;16.25;;;;;;;;5069758;28;51417;-59
2021/07/21 13:07:21;;;;;;;;;13.25;12.75;;;;;;;;5070336;28;50946;-60
2021/07/21 13:09:49;;;;;;;;;19.00;18.00;;;;;;;;5068952;28;50960;-58
2021/07/21 13:12:15;;;;;;;;;16.75;16.00;;;;;;;;5070191;28;50982;-59
2021/07/21 13:14:40;;;;;;;;;17.00;16.00;;;;;;;;5070371;27;50953;-58
2021/07/21 13:17:12;;;;;;;;;16.25;16.25;;;;;;;;5069607;27;50933;-59
2021/07/21 13:19:37;;;;;;;;;19.25;18.50;;;;;;;;5069542;28;50982;-60
2021/07/21 13:22:02;;;;;;;;;13.00;12.00;;;;;;;;5071034;27;51072;-58
2021/07/21 13:24:29;;;;;;;;;18.00;17.50;;;;;;;;5071745;27;51146;-58
2021/07/21 13:26:54;;;;;;;;;17.75;17.50;;;;;;;;5073926;27;51012;-59
2021/07/21 13:29:19;;;;;;;;;18.25;15.25;;;;;;;;5074042;27;51004;-60
2021/07/21 13:31:47;;;;;;;;;18.25;18.00;;;;;;;;5074310;27;50850;-60
2021/07/21 13:34:31;;;;;;;;;17.75;17.75;;;;;;;;5073178;28;51845;-58
2021/07/21 13:36:58;;;;;;;;;16.25;16.00;;;;;;;;5061899;27;51359;-60
2021/07/21 13:39:24;;;;;;;;;16.50;15.50;;;;;;;;5073634;27;51066;-57
2021/07/21 13:41:51;;;;;;;;;16.50;16.50;;;;;;;;5073270;27;51084;-60
2021/07/21 13:44:17;;;;;;;;;16.00;16.00;;;;;;;;5073416;28;51043;-59
2021/07/21 13:46:50;;;;;;;;;16.50;16.00;;;;;;;;5073052;27;51818;-59
2021/07/21 13:49:24;;;;;;;;;16.67;16.67;;;;;;;;5071942;28;51138;-59
2021/07/21 13:51:54;;;;;;;;;13.75;13.75;;;;;;;;5073175;28;51062;-58
2021/07/21 13:54:24;;;;;;;;;17.50;17.50;;;;;;;;5073420;27;51020;-60
2021/07/21 13:56:51;;;;;;;;;15.25;14.75;;;;;;;;5073101;27;52036;-58
2021/07/21 13:59:17;;;;;;;;;16.00;16.00;;;;;;;;5072841;27;50996;-59
2021/07/21 14:01:42;;;;;;;;;16.25;16.25;;;;;;;;5059086;27;51009;-59
2021/07/21 14:04:08;;;;;;;;;16.25;16.00;;;;;;;;5071293;27;50965;-58
2021/07/21 14:06:33;;;;;;;;;20.00;19.50;;;;;;;;5072052;28;51112;-58
2021/07/21 14:09:03;;;;;;;;;22.50;21.75;;;;;;;;5073706;27;51009;-60
2021/07/21 14:11:28;;;;;;;;;16.00;16.00;;;;;;;;5073289;27;51226;-60
2021/07/21 14:13:54;;;;;;;;;16.50;16.50;;;;;;;;5073302;27;50954;-59
2021/07/21 14:16:19;;;;;;;;;19.50;17.75;;;;;;;;5071000;28;53306;-60
2021/07/21 14:18:45;;;;;;;;;14.75;13.50;;;;;;;;5072584;27;51112;-58
2021/07/21 14:21:10;;;;;;;;;17.75;16.50;;;;;;;;5072681;27;50949;-58
2021/07/21 14:23:37;;;;;;;;;16.00;16.00;;;;;;;;5073032;27;51238;-58
2021/07/21 14:26:03;;;;;;;;;17.75;16.00;;;;;;;;5070569;27;51163;-59
2021/07/21 14:28:28;;;;;;;;;14.67;14.67;;;;;;;;5061821;27;50992;-59
2021/07/21 14:30:53;;;;;;;;;16.25;15.75;;;;;;;;5072533;27;51164;-58